sensor_id;sensor_type;location;lat;lon;timestamp;temperature;humidity
27741;DHT22;15134;48.768;9.184;2023-05-02T00:00:45;11.80;99.90
27741;DHT22;15134;48.768;9.184;2023-05-02T00:03:12;11.80;99.90
27741;DHT22;15134;48.768;9.184;2023-05-02T00:05:38;11.80;99.90
27741;DHT22;15134;48.768;9.184;2023-05-02T00:08:05;11.80;99.90
27741;DHT22;15134;48.768;9.184;2023-05-02T00:10:31;11.70;99.90
27741;DHT22;15134;48.768;9.184;2023-05-02T00:12:56;11.70;99.90
27741;DHT22;15134;48.768;9.184;2023-05-02T00:15:25;11.70;99.90
27741;DHT22;15134;48.768;9.184;2023-05-02T00:17:54;11.70;99.90
27741;DHT22;15134;48.768;9.184;2023-05-02T00:20:19;11.70;99.90
27741;DHT22;15134;48.768;9.184;2023-05-02T00:22:45;11.70;99.90
27741;DHT22;15134;48.768;9.184;2023-05-02T00:25:12;11.70;99.90
27741;DHT22;15134;48.768;9.184;2023-05-02T00:27:41;11.70;99.90
27741;DHT22;15134;48.768;9.184;2023-05-02T00:30:08;11.70;99.90
27741;DHT22;15134;48.768;9.184;2023-05-02T00:32:33;11.60;99.90
27741;DHT22;15134;48.768;9.184;2023-05-02T00:35:00;11.60;99.90
27741;DHT22;15134;48.768;9.184;2023-05-02T00:37:26;11.60;99.90
27741;DHT22;15134;48.768;9.184;2023-05-02T00:39:53;11.60;99.90
27741;DHT22;15134;48.768;9.184;2023-05-02T00:42:19;11.60;99.90
27741;DHT22;15134;48.768;9.184;2023-05-02T00:44:45;11.60;99.90
27741;DHT22;15134;48.768;9.184;2023-05-02T00:47:11;11.60;99.90
27741;DHT22;15134;48.768;9.184;2023-05-02T00:49:38;11.70;99.90
27741;DHT22;15134;48.768;9.184;2023-05-02T00:52:04;11.70;99.90
27741;DHT22;15134;48.768;9.184;2023-05-02T00:54:30;11.60;99.90
27741;DHT22;15134;48.768;9.184;2023-05-02T00:56:56;11.60;99.90
27741;DHT22;15134;48.768;9.184;2023-05-02T00:59:22;11.60;99.90
27741;DHT22;15134;48.768;9.184;2023-05-02T01:02:10;11.50;99.90
27741;DHT22;15134;48.768;9.184;2023-05-02T01:05:01;11.50;99.90
27741;DHT22;15134;48.768;9.184;2023-05-02T01:08:02;11.50;99.90
27741;DHT22;15134;48.768;9.184;2023-05-02T01:13:00;11.50;99.90
27741;DHT22;15134;48.768;9.184;2023-05-02T01:15:27;11.60;99.90
27741;DHT22;15134;48.768;9.184;2023-05-02T01:17:55;11.60;99.90
27741;DHT22;15134;48.768;9.184;2023-05-02T01:20:25;11.60;99.90
27741;DHT22;15134;48.768;9.184;2023-05-02T01:22:55;11.60;99.90
27741;DHT22;15134;48.768;9.184;2023-05-02T01:25:32;11.60;99.90
27741;DHT22;15134;48.768;9.184;2023-05-02T01:30:55;11.70;99.90
27741;DHT22;15134;48.768;9.184;2023-05-02T01:33:23;11.70;99.90
27741;DHT22;15134;48.768;9.184;2023-05-02T01:35:51;11.70;99.90
27741;DHT22;15134;48.768;9.184;2023-05-02T01:38:18;11.70;99.90
27741;DHT22;15134;48.768;9.184;2023-05-02T01:40:44;11.70;99.90
27741;DHT22;15134;48.768;9.184;2023-05-02T01:43:14;11.70;99.90
27741;DHT22;15134;48.768;9.184;2023-05-02T01:45:43;11.70;99.90
27741;DHT22;15134;48.768;9.184;2023-05-02T01:48:16;11.70;99.90
27741;DHT22;15134;48.768;9.184;2023-05-02T01:50:44;11.70;99.90
27741;DHT22;15134;48.768;9.184;2023-05-02T01:53:13;11.70;99.90
27741;DHT22;15134;48.768;9.184;2023-05-02T01:55:44;11.60;99.90
27741;DHT22;15134;48.768;9.184;2023-05-02T01:58:13;11.60;99.90
27741;DHT22;15134;48.768;9.184;2023-05-02T02:00:40;11.60;99.90
27741;DHT22;15134;48.768;9.184;2023-05-02T02:03:07;11.50;99.90
27741;DHT22;15134;48.768;9.184;2023-05-02T02:05:34;11.50;99.90
27741;DHT22;15134;48.768;9.184;2023-05-02T02:08:02;11.50;99.90
27741;DHT22;15134;48.768;9.184;2023-05-02T02:10:30;11.40;99.90
27741;DHT22;15134;48.768;9.184;2023-05-02T02:13:18;11.40;99.90
27741;DHT22;15134;48.768;9.184;2023-05-02T02:15:48;11.40;99.90
27741;DHT22;15134;48.768;9.184;2023-05-02T02:18:20;11.30;99.90
27741;DHT22;15134;48.768;9.184;2023-05-02T02:20:47;11.30;99.90
27741;DHT22;15134;48.768;9.184;2023-05-02T02:23:22;11.30;99.90
27741;DHT22;15134;48.768;9.184;2023-05-02T02:25:51;11.30;99.90
27741;DHT22;15134;48.768;9.184;2023-05-02T02:28:21;11.30;99.90
27741;DHT22;15134;48.768;9.184;2023-05-02T02:30:47;11.40;99.90
27741;DHT22;15134;48.768;9.184;2023-05-02T02:33:13;11.30;99.90
27741;DHT22;15134;48.768;9.184;2023-05-02T02:36:10;11.30;99.90
27741;DHT22;15134;48.768;9.184;2023-05-02T02:41:17;11.30;99.90
27741;DHT22;15134;48.768;9.184;2023-05-02T02:50:11;11.20;99.90
27741;DHT22;15134;48.768;9.184;2023-05-02T02:53:13;11.20;99.90
27741;DHT22;15134;48.768;9.184;2023-05-02T02:55:47;11.20;99.90
27741;DHT22;15134;48.768;9.184;2023-05-02T02:58:50;11.20;99.90
27741;DHT22;15134;48.768;9.184;2023-05-02T03:01:21;11.20;99.90
27741;DHT22;15134;48.768;9.184;2023-05-02T03:03:50;11.20;99.90
27741;DHT22;15134;48.768;9.184;2023-05-02T03:06:17;11.20;99.90
27741;DHT22;15134;48.768;9.184;2023-05-02T03:08:43;11.20;99.90
27741;DHT22;15134;48.768;9.184;2023-05-02T03:11:20;11.20;99.90
27741;DHT22;15134;48.768;9.184;2023-05-02T03:13:46;11.30;99.90
27741;DHT22;15134;48.768;9.184;2023-05-02T03:19:00;11.30;99.90
27741;DHT22;15134;48.768;9.184;2023-05-02T03:21:26;11.30;99.90
27741;DHT22;15134;48.768;9.184;2023-05-02T03:23:53;11.30;99.90
27741;DHT22;15134;48.768;9.184;2023-05-02T03:26:19;11.30;99.90
27741;DHT22;15134;48.768;9.184;2023-05-02T03:28:45;11.30;99.90
27741;DHT22;15134;48.768;9.184;2023-05-02T03:31:16;11.30;99.90
27741;DHT22;15134;48.768;9.184;2023-05-02T03:33:42;11.30;99.90
27741;DHT22;15134;48.768;9.184;2023-05-02T03:36:08;11.30;99.90
27741;DHT22;15134;48.768;9.184;2023-05-02T03:38:33;11.30;99.90
27741;DHT22;15134;48.768;9.184;2023-05-02T03:41:04;11.30;99.90
27741;DHT22;15134;48.768;9.184;2023-05-02T03:43:31;11.30;99.90
27741;DHT22;15134;48.768;9.184;2023-05-02T03:46:02;11.30;99.90
27741;DHT22;15134;48.768;9.184;2023-05-02T03:48:32;11.30;99.90
27741;DHT22;15134;48.768;9.184;2023-05-02T03:50:58;11.30;99.90
27741;DHT22;15134;48.768;9.184;2023-05-02T03:53:24;11.30;99.90
27741;DHT22;15134;48.768;9.184;2023-05-02T03:55:58;11.40;99.90
27741;DHT22;15134;48.768;9.184;2023-05-02T03:58:34;11.50;99.90
27741;DHT22;15134;48.768;9.184;2023-05-02T04:01:01;11.50;99.90
27741;DHT22;15134;48.768;9.184;2023-05-02T04:03:27;11.50;99.90
27741;DHT22;15134;48.768;9.184;2023-05-02T04:05:59;11.60;99.90
27741;DHT22;15134;48.768;9.184;2023-05-02T04:08:25;11.60;99.90
27741;DHT22;15134;48.768;9.184;2023-05-02T04:10:52;11.60;99.90
27741;DHT22;15134;48.768;9.184;2023-05-02T04:13:18;11.70;99.90
27741;DHT22;15134;48.768;9.184;2023-05-02T04:15:46;11.70;99.90
27741;DHT22;15134;48.768;9.184;2023-05-02T04:18:16;11.70;99.90
27741;DHT22;15134;48.768;9.184;2023-05-02T04:20:42;11.70;99.90
27741;DHT22;15134;48.768;9.184;2023-05-02T04:23:10;11.80;99.90
27741;DHT22;15134;48.768;9.184;2023-05-02T04:25:37;11.80;99.90
27741;DHT22;15134;48.768;9.184;2023-05-02T04:28:04;11.80;99.90
27741;DHT22;15134;48.768;9.184;2023-05-02T04:30:30;11.80;99.90
27741;DHT22;15134;48.768;9.184;2023-05-02T04:33:01;11.90;99.90
27741;DHT22;15134;48.768;9.184;2023-05-02T04:35:33;11.90;99.90
27741;DHT22;15134;48.768;9.184;2023-05-02T04:38:00;11.90;99.90
27741;DHT22;15134;48.768;9.184;2023-05-02T04:40:26;11.90;99.90
27741;DHT22;15134;48.768;9.184;2023-05-02T04:42:59;12.00;99.90
27741;DHT22;15134;48.768;9.184;2023-05-02T04:45:34;12.00;99.90
27741;DHT22;15134;48.768;9.184;2023-05-02T04:48:01;12.00;99.90
27741;DHT22;15134;48.768;9.184;2023-05-02T04:50:26;12.00;99.90
27741;DHT22;15134;48.768;9.184;2023-05-02T04:52:55;12.00;99.90
27741;DHT22;15134;48.768;9.184;2023-05-02T04:55:21;12.00;99.90
27741;DHT22;15134;48.768;9.184;2023-05-02T04:57:47;12.10;99.90
27741;DHT22;15134;48.768;9.184;2023-05-02T05:00:17;12.20;99.90
27741;DHT22;15134;48.768;9.184;2023-05-02T05:02:45;12.20;99.90
27741;DHT22;15134;48.768;9.184;2023-05-02T05:05:13;12.20;99.90
27741;DHT22;15134;48.768;9.184;2023-05-02T05:07:41;12.20;99.90
27741;DHT22;15134;48.768;9.184;2023-05-02T05:10:09;12.30;99.90
27741;DHT22;15134;48.768;9.184;2023-05-02T05:12:40;12.30;99.90
27741;DHT22;15134;48.768;9.184;2023-05-02T05:15:07;12.30;99.90
27741;DHT22;15134;48.768;9.184;2023-05-02T05:17:34;12.30;99.90
27741;DHT22;15134;48.768;9.184;2023-05-02T05:20:01;12.30;99.90
27741;DHT22;15134;48.768;9.184;2023-05-02T05:22:27;12.30;99.90
27741;DHT22;15134;48.768;9.184;2023-05-02T05:24:54;12.30;99.90
27741;DHT22;15134;48.768;9.184;2023-05-02T05:27:22;12.30;99.90
27741;DHT22;15134;48.768;9.184;2023-05-02T05:29:49;12.30;99.90
27741;DHT22;15134;48.768;9.184;2023-05-02T05:32:17;12.30;99.90
27741;DHT22;15134;48.768;9.184;2023-05-02T05:34:43;12.40;99.90
27741;DHT22;15134;48.768;9.184;2023-05-02T05:37:13;12.50;99.90
27741;DHT22;15134;48.768;9.184;2023-05-02T05:39:41;12.60;99.90
27741;DHT22;15134;48.768;9.184;2023-05-02T05:42:08;12.60;99.90
27741;DHT22;15134;48.768;9.184;2023-05-02T05:44:35;12.60;99.90
27741;DHT22;15134;48.768;9.184;2023-05-02T05:47:01;12.60;99.90
27741;DHT22;15134;48.768;9.184;2023-05-02T05:49:27;12.70;99.90
27741;DHT22;15134;48.768;9.184;2023-05-02T05:51:53;12.80;99.90
27741;DHT22;15134;48.768;9.184;2023-05-02T05:54:19;12.90;99.90
27741;DHT22;15134;48.768;9.184;2023-05-02T05:56:46;12.90;99.90
27741;DHT22;15134;48.768;9.184;2023-05-02T05:59:15;13.00;99.90
27741;DHT22;15134;48.768;9.184;2023-05-02T06:01:41;12.90;99.90
27741;DHT22;15134;48.768;9.184;2023-05-02T06:04:07;12.90;99.90
27741;DHT22;15134;48.768;9.184;2023-05-02T06:06:36;12.90;99.90
27741;DHT22;15134;48.768;9.184;2023-05-02T06:09:02;12.90;99.90
27741;DHT22;15134;48.768;9.184;2023-05-02T06:11:30;12.90;99.90
27741;DHT22;15134;48.768;9.184;2023-05-02T06:13:59;12.90;99.90
27741;DHT22;15134;48.768;9.184;2023-05-02T06:16:24;12.90;99.90
27741;DHT22;15134;48.768;9.184;2023-05-02T06:18:50;12.80;99.90
27741;DHT22;15134;48.768;9.184;2023-05-02T06:21:25;12.90;99.90
27741;DHT22;15134;48.768;9.184;2023-05-02T06:23:54;12.80;99.90
27741;DHT22;15134;48.768;9.184;2023-05-02T06:28:48;13.00;99.90
27741;DHT22;15134;48.768;9.184;2023-05-02T06:31:14;13.00;99.90
27741;DHT22;15134;48.768;9.184;2023-05-02T06:33:40;13.00;99.90
27741;DHT22;15134;48.768;9.184;2023-05-02T06:36:07;13.00;99.90
27741;DHT22;15134;48.768;9.184;2023-05-02T06:38:32;13.00;99.90
27741;DHT22;15134;48.768;9.184;2023-05-02T06:40:58;13.10;99.90
27741;DHT22;15134;48.768;9.184;2023-05-02T06:43:24;13.50;99.90
27741;DHT22;15134;48.768;9.184;2023-05-02T06:45:54;14.00;99.90
27741;DHT22;15134;48.768;9.184;2023-05-02T06:48:23;14.20;99.90
27741;DHT22;15134;48.768;9.184;2023-05-02T06:50:51;14.30;99.90
27741;DHT22;15134;48.768;9.184;2023-05-02T06:53:17;14.10;99.90
27741;DHT22;15134;48.768;9.184;2023-05-02T06:55:47;14.10;99.90
27741;DHT22;15134;48.768;9.184;2023-05-02T06:58:13;13.80;99.90
27741;DHT22;15134;48.768;9.184;2023-05-02T07:00:39;13.70;99.90
27741;DHT22;15134;48.768;9.184;2023-05-02T07:03:05;13.60;99.90
27741;DHT22;15134;48.768;9.184;2023-05-02T07:05:31;13.40;99.90
27741;DHT22;15134;48.768;9.184;2023-05-02T07:07:56;13.50;99.90
27741;DHT22;15134;48.768;9.184;2023-05-02T07:10:22;13.50;99.90
27741;DHT22;15134;48.768;9.184;2023-05-02T07:12:48;13.50;99.90
27741;DHT22;15134;48.768;9.184;2023-05-02T07:15:14;13.50;99.90
27741;DHT22;15134;48.768;9.184;2023-05-02T07:17:41;13.50;99.90
27741;DHT22;15134;48.768;9.184;2023-05-02T07:20:07;13.40;99.90
27741;DHT22;15134;48.768;9.184;2023-05-02T07:22:42;13.30;99.90
27741;DHT22;15134;48.768;9.184;2023-05-02T07:25:11;13.20;99.90
27741;DHT22;15134;48.768;9.184;2023-05-02T07:27:41;13.10;99.90
27741;DHT22;15134;48.768;9.184;2023-05-02T07:30:11;13.10;99.90
27741;DHT22;15134;48.768;9.184;2023-05-02T07:32:38;13.10;99.90
27741;DHT22;15134;48.768;9.184;2023-05-02T07:35:05;13.20;99.90
27741;DHT22;15134;48.768;9.184;2023-05-02T07:37:32;13.20;99.90
27741;DHT22;15134;48.768;9.184;2023-05-02T07:39:59;13.10;99.90
27741;DHT22;15134;48.768;9.184;2023-05-02T07:42:31;13.00;99.90
27741;DHT22;15134;48.768;9.184;2023-05-02T07:44:57;13.10;99.90
27741;DHT22;15134;48.768;9.184;2023-05-02T07:47:29;13.20;99.90
27741;DHT22;15134;48.768;9.184;2023-05-02T07:49:55;13.40;99.90
27741;DHT22;15134;48.768;9.184;2023-05-02T07:52:21;13.50;99.90
27741;DHT22;15134;48.768;9.184;2023-05-02T07:54:47;13.60;99.90
27741;DHT22;15134;48.768;9.184;2023-05-02T07:57:17;13.70;99.90
27741;DHT22;15134;48.768;9.184;2023-05-02T07:59:48;13.80;99.90
27741;DHT22;15134;48.768;9.184;2023-05-02T08:02:14;14.00;99.90
27741;DHT22;15134;48.768;9.184;2023-05-02T08:04:45;13.90;99.90
27741;DHT22;15134;48.768;9.184;2023-05-02T08:07:12;13.90;99.90
27741;DHT22;15134;48.768;9.184;2023-05-02T08:09:37;13.80;99.90
27741;DHT22;15134;48.768;9.184;2023-05-02T08:12:03;13.80;99.90
27741;DHT22;15134;48.768;9.184;2023-05-02T08:14:30;13.80;99.90
27741;DHT22;15134;48.768;9.184;2023-05-02T08:16:59;13.80;99.90
27741;DHT22;15134;48.768;9.184;2023-05-02T08:19:24;13.90;99.90
27741;DHT22;15134;48.768;9.184;2023-05-02T08:21:52;13.90;99.90
27741;DHT22;15134;48.768;9.184;2023-05-02T08:24:18;13.90;99.90
27741;DHT22;15134;48.768;9.184;2023-05-02T08:26:47;13.80;99.90
27741;DHT22;15134;48.768;9.184;2023-05-02T08:29:12;13.80;99.90
27741;DHT22;15134;48.768;9.184;2023-05-02T08:31:40;13.80;99.90
27741;DHT22;15134;48.768;9.184;2023-05-02T08:34:05;14.00;99.90
27741;DHT22;15134;48.768;9.184;2023-05-02T08:36:37;14.20;99.90
27741;DHT22;15134;48.768;9.184;2023-05-02T08:39:03;14.40;99.90
27741;DHT22;15134;48.768;9.184;2023-05-02T08:41:29;14.60;99.90
27741;DHT22;15134;48.768;9.184;2023-05-02T08:43:56;14.60;99.90
27741;DHT22;15134;48.768;9.184;2023-05-02T08:46:22;14.80;99.90
27741;DHT22;15134;48.768;9.184;2023-05-02T08:48:49;15.00;99.90
27741;DHT22;15134;48.768;9.184;2023-05-02T08:51:16;15.20;99.90
27741;DHT22;15134;48.768;9.184;2023-05-02T08:53:42;15.40;99.90
27741;DHT22;15134;48.768;9.184;2023-05-02T08:56:18;15.60;99.90
27741;DHT22;15134;48.768;9.184;2023-05-02T08:58:50;15.80;99.90
27741;DHT22;15134;48.768;9.184;2023-05-02T09:01:17;16.00;99.90
27741;DHT22;15134;48.768;9.184;2023-05-02T09:03:46;16.20;99.90
27741;DHT22;15134;48.768;9.184;2023-05-02T09:06:15;16.30;99.90
27741;DHT22;15134;48.768;9.184;2023-05-02T09:08:43;16.40;99.90
27741;DHT22;15134;48.768;9.184;2023-05-02T09:11:11;16.40;99.90
27741;DHT22;15134;48.768;9.184;2023-05-02T09:13:48;16.50;99.90
27741;DHT22;15134;48.768;9.184;2023-05-02T09:16:20;16.60;99.90
27741;DHT22;15134;48.768;9.184;2023-05-02T09:18:57;16.80;99.90
27741;DHT22;15134;48.768;9.184;2023-05-02T09:21:25;17.00;99.90
27741;DHT22;15134;48.768;9.184;2023-05-02T09:23:56;17.20;99.90
27741;DHT22;15134;48.768;9.184;2023-05-02T09:26:25;17.30;99.90
27741;DHT22;15134;48.768;9.184;2023-05-02T09:28:57;17.20;99.90
27741;DHT22;15134;48.768;9.184;2023-05-02T09:31:25;17.20;99.90
27741;DHT22;15134;48.768;9.184;2023-05-02T09:33:52;17.40;99.90
27741;DHT22;15134;48.768;9.184;2023-05-02T09:36:39;17.50;99.90
27741;DHT22;15134;48.768;9.184;2023-05-02T09:39:09;17.60;99.90
27741;DHT22;15134;48.768;9.184;2023-05-02T09:41:47;17.60;99.90
27741;DHT22;15134;48.768;9.184;2023-05-02T09:44:19;17.60;99.90
27741;DHT22;15134;48.768;9.184;2023-05-02T09:46:46;17.50;99.90
27741;DHT22;15134;48.768;9.184;2023-05-02T09:49:12;17.40;99.90
27741;DHT22;15134;48.768;9.184;2023-05-02T09:51:39;17.50;99.90
27741;DHT22;15134;48.768;9.184;2023-05-02T09:54:05;17.90;99.90
27741;DHT22;15134;48.768;9.184;2023-05-02T09:56:32;18.10;99.90
27741;DHT22;15134;48.768;9.184;2023-05-02T09:59:16;18.00;99.90
27741;DHT22;15134;48.768;9.184;2023-05-02T10:01:42;18.00;99.90
27741;DHT22;15134;48.768;9.184;2023-05-02T10:04:14;18.10;99.90
27741;DHT22;15134;48.768;9.184;2023-05-02T10:06:44;18.20;99.90
27741;DHT22;15134;48.768;9.184;2023-05-02T10:09:10;18.40;99.90
27741;DHT22;15134;48.768;9.184;2023-05-02T10:11:46;18.50;99.90
27741;DHT22;15134;48.768;9.184;2023-05-02T10:14:16;18.80;99.90
27741;DHT22;15134;48.768;9.184;2023-05-02T10:17:09;18.90;99.90
27741;DHT22;15134;48.768;9.184;2023-05-02T10:19:49;18.70;99.90
27741;DHT22;15134;48.768;9.184;2023-05-02T10:22:18;18.40;99.90
27741;DHT22;15134;48.768;9.184;2023-05-02T10:24:47;18.40;99.90
27741;DHT22;15134;48.768;9.184;2023-05-02T10:27:14;18.50;99.90
27741;DHT22;15134;48.768;9.184;2023-05-02T10:29:41;18.40;99.90
27741;DHT22;15134;48.768;9.184;2023-05-02T10:32:15;18.40;99.90
27741;DHT22;15134;48.768;9.184;2023-05-02T10:34:41;18.40;99.90
27741;DHT22;15134;48.768;9.184;2023-05-02T10:37:08;18.20;99.90
27741;DHT22;15134;48.768;9.184;2023-05-02T10:39:33;18.40;99.90
27741;DHT22;15134;48.768;9.184;2023-05-02T10:42:01;18.50;99.90
27741;DHT22;15134;48.768;9.184;2023-05-02T10:44:35;18.60;99.90
27741;DHT22;15134;48.768;9.184;2023-05-02T10:47:26;18.50;99.90
27741;DHT22;15134;48.768;9.184;2023-05-02T10:50:00;18.60;99.90
27741;DHT22;15134;48.768;9.184;2023-05-02T10:55:18;18.80;99.90
27741;DHT22;15134;48.768;9.184;2023-05-02T11:00:32;19.00;99.90
27741;DHT22;15134;48.768;9.184;2023-05-02T11:02:59;18.70;99.90
27741;DHT22;15134;48.768;9.184;2023-05-02T11:05:26;18.50;99.90
27741;DHT22;15134;48.768;9.184;2023-05-02T11:10:40;18.40;99.90
27741;DHT22;15134;48.768;9.184;2023-05-02T11:13:06;18.60;99.90
27741;DHT22;15134;48.768;9.184;2023-05-02T11:20:39;19.10;99.90
27741;DHT22;15134;48.768;9.184;2023-05-02T11:23:22;19.10;99.90
27741;DHT22;15134;48.768;9.184;2023-05-02T11:25:58;19.00;99.90
27741;DHT22;15134;48.768;9.184;2023-05-02T11:34:02;18.60;99.90
27741;DHT22;15134;48.768;9.184;2023-05-02T11:36:34;18.60;99.90
27741;DHT22;15134;48.768;9.184;2023-05-02T11:39:04;18.80;99.90
27741;DHT22;15134;48.768;9.184;2023-05-02T11:41:40;18.80;99.90
27741;DHT22;15134;48.768;9.184;2023-05-02T11:44:09;18.90;99.90
27741;DHT22;15134;48.768;9.184;2023-05-02T11:46:39;19.10;99.90
27741;DHT22;15134;48.768;9.184;2023-05-02T11:49:05;19.20;99.90
27741;DHT22;15134;48.768;9.184;2023-05-02T11:51:35;19.10;99.90
27741;DHT22;15134;48.768;9.184;2023-05-02T11:54:01;19.10;99.90
27741;DHT22;15134;48.768;9.184;2023-05-02T11:56:27;19.20;99.90
27741;DHT22;15134;48.768;9.184;2023-05-02T11:59:01;19.30;99.90
27741;DHT22;15134;48.768;9.184;2023-05-02T12:01:28;19.10;99.90
27741;DHT22;15134;48.768;9.184;2023-05-02T12:04:07;19.00;99.90
27741;DHT22;15134;48.768;9.184;2023-05-02T12:06:34;18.90;99.90
27741;DHT22;15134;48.768;9.184;2023-05-02T12:09:13;18.70;99.90
27741;DHT22;15134;48.768;9.184;2023-05-02T12:11:40;18.60;99.90
27741;DHT22;15134;48.768;9.184;2023-05-02T12:14:06;18.50;99.90
27741;DHT22;15134;48.768;9.184;2023-05-02T12:16:32;18.60;99.90
27741;DHT22;15134;48.768;9.184;2023-05-02T12:19:01;18.40;99.90
27741;DHT22;15134;48.768;9.184;2023-05-02T12:21:28;18.50;99.90
27741;DHT22;15134;48.768;9.184;2023-05-02T12:23:55;18.60;99.90
27741;DHT22;15134;48.768;9.184;2023-05-02T12:26:22;18.60;99.90
27741;DHT22;15134;48.768;9.184;2023-05-02T12:28:57;18.60;99.90
27741;DHT22;15134;48.768;9.184;2023-05-02T12:31:24;18.50;99.90
27741;DHT22;15134;48.768;9.184;2023-05-02T12:33:50;18.60;99.90
27741;DHT22;15134;48.768;9.184;2023-05-02T12:36:21;18.70;99.90
27741;DHT22;15134;48.768;9.184;2023-05-02T12:38:52;18.60;99.90
27741;DHT22;15134;48.768;9.184;2023-05-02T12:41:37;18.20;99.90
27741;DHT22;15134;48.768;9.184;2023-05-02T12:44:06;18.00;99.90
27741;DHT22;15134;48.768;9.184;2023-05-02T12:46:33;17.80;99.90
27741;DHT22;15134;48.768;9.184;2023-05-02T12:49:07;17.50;99.90
27741;DHT22;15134;48.768;9.184;2023-05-02T12:51:39;17.40;99.90
27741;DHT22;15134;48.768;9.184;2023-05-02T12:54:05;17.40;99.90
27741;DHT22;15134;48.768;9.184;2023-05-02T12:56:39;17.40;99.90
27741;DHT22;15134;48.768;9.184;2023-05-02T12:59:05;17.30;99.90
27741;DHT22;15134;48.768;9.184;2023-05-02T13:01:32;17.50;99.90
27741;DHT22;15134;48.768;9.184;2023-05-02T13:03:58;17.50;99.90
27741;DHT22;15134;48.768;9.184;2023-05-02T13:06:24;17.70;99.90
27741;DHT22;15134;48.768;9.184;2023-05-02T13:08:56;17.80;99.90
27741;DHT22;15134;48.768;9.184;2023-05-02T13:11:22;17.90;99.90
27741;DHT22;15134;48.768;9.184;2023-05-02T13:13:48;18.00;99.90
27741;DHT22;15134;48.768;9.184;2023-05-02T13:16:14;18.30;99.90
27741;DHT22;15134;48.768;9.184;2023-05-02T13:18:42;18.40;99.90
27741;DHT22;15134;48.768;9.184;2023-05-02T13:21:08;18.50;99.90
27741;DHT22;15134;48.768;9.184;2023-05-02T13:23:33;18.50;99.90
27741;DHT22;15134;48.768;9.184;2023-05-02T13:26:02;18.50;99.90
27741;DHT22;15134;48.768;9.184;2023-05-02T13:28:28;18.50;99.90
27741;DHT22;15134;48.768;9.184;2023-05-02T13:30:57;18.40;99.90
27741;DHT22;15134;48.768;9.184;2023-05-02T13:33:26;18.20;99.90
27741;DHT22;15134;48.768;9.184;2023-05-02T13:35:51;18.10;99.90
27741;DHT22;15134;48.768;9.184;2023-05-02T13:38:17;18.20;99.90
27741;DHT22;15134;48.768;9.184;2023-05-02T13:40:43;18.40;99.90
27741;DHT22;15134;48.768;9.184;2023-05-02T13:43:09;18.50;99.90
27741;DHT22;15134;48.768;9.184;2023-05-02T13:45:38;18.60;99.90
27741;DHT22;15134;48.768;9.184;2023-05-02T13:48:04;18.70;99.90
27741;DHT22;15134;48.768;9.184;2023-05-02T13:50:30;18.70;99.90
27741;DHT22;15134;48.768;9.184;2023-05-02T13:52:56;18.70;99.90
27741;DHT22;15134;48.768;9.184;2023-05-02T13:55:22;18.60;99.90
27741;DHT22;15134;48.768;9.184;2023-05-02T13:57:47;18.50;99.90
27741;DHT22;15134;48.768;9.184;2023-05-02T14:00:14;18.30;99.90
27741;DHT22;15134;48.768;9.184;2023-05-02T14:02:40;18.10;99.90
27741;DHT22;15134;48.768;9.184;2023-05-02T14:05:07;17.90;99.90
27741;DHT22;15134;48.768;9.184;2023-05-02T14:07:32;17.80;99.90
27741;DHT22;15134;48.768;9.184;2023-05-02T14:09:58;17.60;99.90
27741;DHT22;15134;48.768;9.184;2023-05-02T14:12:24;17.50;99.90
27741;DHT22;15134;48.768;9.184;2023-05-02T14:14:50;17.50;99.90
27741;DHT22;15134;48.768;9.184;2023-05-02T14:17:16;17.40;99.90
27741;DHT22;15134;48.768;9.184;2023-05-02T14:19:41;17.40;99.90
27741;DHT22;15134;48.768;9.184;2023-05-02T14:22:13;17.40;99.90
27741;DHT22;15134;48.768;9.184;2023-05-02T14:24:39;17.60;99.90
27741;DHT22;15134;48.768;9.184;2023-05-02T14:27:05;17.80;99.90
27741;DHT22;15134;48.768;9.184;2023-05-02T14:29:38;18.10;99.90
27741;DHT22;15134;48.768;9.184;2023-05-02T14:32:04;18.30;99.90
27741;DHT22;15134;48.768;9.184;2023-05-02T14:34:30;18.40;99.90
27741;DHT22;15134;48.768;9.184;2023-05-02T14:36:56;18.40;99.90
27741;DHT22;15134;48.768;9.184;2023-05-02T14:39:21;18.30;99.90
27741;DHT22;15134;48.768;9.184;2023-05-02T14:41:47;18.20;99.90
27741;DHT22;15134;48.768;9.184;2023-05-02T14:44:13;18.10;99.90
27741;DHT22;15134;48.768;9.184;2023-05-02T14:46:42;18.10;99.90
27741;DHT22;15134;48.768;9.184;2023-05-02T14:49:10;18.10;99.90
27741;DHT22;15134;48.768;9.184;2023-05-02T14:51:39;18.20;99.90
27741;DHT22;15134;48.768;9.184;2023-05-02T14:54:05;18.30;99.90
27741;DHT22;15134;48.768;9.184;2023-05-02T14:56:31;18.50;99.90
27741;DHT22;15134;48.768;9.184;2023-05-02T14:59:01;18.60;99.90
27741;DHT22;15134;48.768;9.184;2023-05-02T15:01:26;18.50;99.90
27741;DHT22;15134;48.768;9.184;2023-05-02T15:03:53;18.50;99.90
27741;DHT22;15134;48.768;9.184;2023-05-02T15:06:20;18.50;99.90
27741;DHT22;15134;48.768;9.184;2023-05-02T15:08:47;18.50;99.90
27741;DHT22;15134;48.768;9.184;2023-05-02T15:11:12;18.60;99.90
27741;DHT22;15134;48.768;9.184;2023-05-02T15:13:38;18.50;99.90
27741;DHT22;15134;48.768;9.184;2023-05-02T15:16:04;18.40;99.90
27741;DHT22;15134;48.768;9.184;2023-05-02T15:18:30;18.40;99.90
27741;DHT22;15134;48.768;9.184;2023-05-02T15:20:56;18.30;99.90
27741;DHT22;15134;48.768;9.184;2023-05-02T15:23:22;18.20;99.90
27741;DHT22;15134;48.768;9.184;2023-05-02T15:25:48;18.10;99.90
27741;DHT22;15134;48.768;9.184;2023-05-02T15:28:13;18.10;99.90
27741;DHT22;15134;48.768;9.184;2023-05-02T15:30:39;17.90;99.90
27741;DHT22;15134;48.768;9.184;2023-05-02T15:33:05;17.90;99.90
27741;DHT22;15134;48.768;9.184;2023-05-02T15:35:31;17.80;99.90
27741;DHT22;15134;48.768;9.184;2023-05-02T15:37:58;17.60;99.90
27741;DHT22;15134;48.768;9.184;2023-05-02T15:40:23;17.50;99.90
27741;DHT22;15134;48.768;9.184;2023-05-02T15:42:52;17.40;99.90
27741;DHT22;15134;48.768;9.184;2023-05-02T15:45:17;17.50;99.90
27741;DHT22;15134;48.768;9.184;2023-05-02T15:47:43;17.60;99.90
27741;DHT22;15134;48.768;9.184;2023-05-02T15:50:09;17.60;99.90
27741;DHT22;15134;48.768;9.184;2023-05-02T15:52:35;17.60;99.90
27741;DHT22;15134;48.768;9.184;2023-05-02T15:55:01;17.50;99.90
27741;DHT22;15134;48.768;9.184;2023-05-02T15:57:27;17.40;99.90
27741;DHT22;15134;48.768;9.184;2023-05-02T15:59:53;17.40;99.90
27741;DHT22;15134;48.768;9.184;2023-05-02T16:02:22;17.30;99.90
27741;DHT22;15134;48.768;9.184;2023-05-02T16:04:48;17.20;99.90
27741;DHT22;15134;48.768;9.184;2023-05-02T16:07:13;17.10;99.90
27741;DHT22;15134;48.768;9.184;2023-05-02T16:09:39;17.10;99.90
27741;DHT22;15134;48.768;9.184;2023-05-02T16:12:06;17.10;99.90
27741;DHT22;15134;48.768;9.184;2023-05-02T16:14:35;17.10;99.90
27741;DHT22;15134;48.768;9.184;2023-05-02T16:17:01;17.10;99.90